createdAt,value
2022-11-28T00:02:03.861Z,7.67
2022-11-28T00:07:06.640Z,7.73
2022-11-28T00:12:08.563Z,8.73
2022-11-28T00:17:10.811Z,6.57
2022-11-28T00:22:12.822Z,6.67
2022-11-28T00:27:18.239Z,8.30
2022-11-28T00:32:51.819Z,7.47
2022-11-28T00:37:55.718Z,7.73
2022-11-28T00:42:57.722Z,7.53
2022-11-28T00:47:59.898Z,8.30
2022-11-28T00:53:01.646Z,8.07
2022-11-28T01:04:07.950Z,7.40
2022-11-28T01:09:51.151Z,8.83
2022-11-28T01:14:58.160Z,9.70
2022-11-28T01:20:08.228Z,6.87
2022-11-28T01:25:12.305Z,7.83
2022-11-28T01:30:42.614Z,8.47
2022-11-28T01:36:09.259Z,8.23
2022-11-28T01:47:02.278Z,7.80
2022-11-28T01:52:58.348Z,9.03
2022-11-28T01:57:55.080Z,10.83
2022-11-28T02:03:05.847Z,10.30
2022-11-28T02:08:11.522Z,9.77
2022-11-28T02:31:45.574Z,8.73
2022-11-28T02:37:09.001Z,13.40
2022-11-28T02:42:44.341Z,8.60
2022-11-28T02:48:10.785Z,11.50
2022-11-28T02:59:02.170Z,10.53
2022-11-28T03:04:41.947Z,8.37
2022-11-28T03:09:44.768Z,9.73
2022-11-28T03:15:08.536Z,10.67
2022-11-28T03:20:14.669Z,10.43
2022-11-28T03:25:44.675Z,10.63
2022-11-28T03:31:11.665Z,11.73
2022-11-28T03:36:37.807Z,9.10
2022-11-28T04:00:45.175Z,10.23
2022-11-28T04:06:15.212Z,9.80
2022-11-28T04:11:35.503Z,13.03
2022-11-28T04:17:13.224Z,11.10
2022-11-28T04:22:43.503Z,13.83
2022-11-28T04:28:01.893Z,11.50
2022-11-28T04:33:11.037Z,13.10
2022-11-28T04:38:34.562Z,16.17
2022-11-28T04:43:43.642Z,11.73
2022-11-28T04:49:01.917Z,11.87
2022-11-28T04:54:42.755Z,11.60
2022-11-28T05:00:11.796Z,11.07
2022-11-28T05:06:06.838Z,13.00
2022-11-28T05:11:08.382Z,13.70
2022-11-28T05:16:13.191Z,14.03
2022-11-28T05:27:05.416Z,16.67
2022-11-28T05:32:07.446Z,14.27
2022-11-28T05:37:11.862Z,14.43
2022-11-28T05:43:03.505Z,14.10
2022-11-28T05:48:59.277Z,13.07
2022-11-28T05:53:37.341Z,15.30
2022-11-28T05:58:40.465Z,13.97
2022-11-28T06:03:43.013Z,13.20
2022-11-28T06:08:49.960Z,12.77
2022-11-28T06:14:13.661Z,18.33
2022-11-28T06:19:51.358Z,14.77
2022-11-28T06:24:53.202Z,18.17
2022-11-28T06:29:59.103Z,15.80
2022-11-28T06:35:00.875Z,16.53
2022-11-28T06:40:02.995Z,14.03
2022-11-28T06:45:07.929Z,15.93
2022-11-28T06:50:13.049Z,13.77
2022-11-28T06:55:31.881Z,15.17
2022-11-28T07:00:42.381Z,15.90
2022-11-28T07:05:44.187Z,13.00
2022-11-28T07:10:48.087Z,13.40
2022-11-28T07:15:52.520Z,13.23
2022-11-28T07:20:59.222Z,16.63
2022-11-28T07:26:03.299Z,15.17
2022-11-28T07:31:33.877Z,13.90
2022-11-28T07:41:59.385Z,17.63
2022-11-28T07:47:01.282Z,20.23
2022-11-28T07:52:03.242Z,20.53
2022-11-28T07:57:12.650Z,18.50
2022-11-28T08:02:15.173Z,17.67
2022-11-28T08:07:46.892Z,16.40
2022-11-28T08:18:14.555Z,15.77
2022-11-28T08:23:16.386Z,13.17
2022-11-28T08:28:18.525Z,15.60
2022-11-28T08:33:31.774Z,14.63
2022-11-28T08:38:33.966Z,14.53
2022-11-28T08:43:38.949Z,14.93
2022-11-28T08:48:42.053Z,13.10
2022-11-28T08:53:48.649Z,17.27
2022-11-28T08:58:51.278Z,13.60
2022-11-28T09:03:54.421Z,14.63
2022-11-28T09:08:56.329Z,15.77
2022-11-28T09:14:49.417Z,18.13
2022-11-28T09:19:53.685Z,15.83
2022-11-28T09:24:55.720Z,14.63
2022-11-28T09:29:57.506Z,15.53
2022-11-28T09:35:03.544Z,14.63
2022-11-28T09:40:13.133Z,13.60
2022-11-28T09:45:33.597Z,15.83
2022-11-28T09:50:55.106Z,15.73
2022-11-28T09:56:12.801Z,12.83
2022-11-28T10:08:10.684Z,15.67
2022-11-28T10:14:06.607Z,13.63
2022-11-28T10:20:04.504Z,19.37
2022-11-28T10:30:38.951Z,17.13
2022-11-28T10:36:13.285Z,17.50
2022-11-28T10:41:39.724Z,16.17
2022-11-28T10:47:31.884Z,18.57
2022-11-28T10:52:54.984Z,22.63
2022-11-28T10:58:46.044Z,20.00
2022-11-28T11:03:58.857Z,17.23
2022-11-28T11:09:00.708Z,18.57
2022-11-28T11:14:11.187Z,17.70
2022-11-28T11:19:36.596Z,19.30
2022-11-28T11:24:41.475Z,15.90
2022-11-28T11:30:06.732Z,18.57
2022-11-28T11:35:38.603Z,16.07
2022-11-28T11:40:42.820Z,13.93
2022-11-28T11:45:47.280Z,14.30
2022-11-28T11:51:39.243Z,13.93
2022-11-28T11:57:35.261Z,13.43
2022-11-28T12:03:03.149Z,15.17
2022-11-28T12:08:33.876Z,14.63
2022-11-28T12:13:55.040Z,14.20
2022-11-28T12:18:56.932Z,15.03
2022-11-28T12:30:15.635Z,14.93
2022-11-28T12:35:45.721Z,13.27
2022-11-28T12:41:17.102Z,12.73
2022-11-28T12:46:45.450Z,14.57
2022-11-28T12:51:50.845Z,15.60
2022-11-28T12:57:15.694Z,14.20
2022-11-28T13:02:48.560Z,17.37
2022-11-28T13:08:15.116Z,16.10
2022-11-28T13:18:46.277Z,18.97
2022-11-28T13:24:45.396Z,18.03
2022-11-28T13:29:49.779Z,16.77
2022-11-28T13:34:53.294Z,17.10
2022-11-28T13:46:10.032Z,18.97
2022-11-28T13:51:18.751Z,19.10
2022-11-28T14:02:48.755Z,16.63
2022-11-28T14:07:50.735Z,17.13
2022-11-28T14:19:11.273Z,17.83
2022-11-28T14:24:57.922Z,16.47
2022-11-28T14:30:02.808Z,16.53
2022-11-28T14:35:06.692Z,18.70
2022-11-28T14:40:59.626Z,18.43
2022-11-28T14:57:53.054Z,17.93
2022-11-28T15:14:47.100Z,21.43
2022-11-28T15:19:53.264Z,23.80
2022-11-28T15:24:55.114Z,22.20
2022-11-28T15:30:19.759Z,22.27
2022-11-28T15:35:49.550Z,18.93
2022-11-28T15:40:53.073Z,20.63
2022-11-28T15:45:59.992Z,21.23
2022-11-28T15:51:05.179Z,19.00
2022-11-28T15:56:34.884Z,19.80
2022-11-28T16:06:59.816Z,19.00
2022-11-28T16:12:05.624Z,22.70
2022-11-28T16:18:05.857Z,21.43
2022-11-28T16:22:46.504Z,23.23
2022-11-28T16:39:15.425Z,25.13
2022-11-28T16:44:34.973Z,22.07
2022-11-28T16:50:15.550Z,22.63
2022-11-28T16:55:33.624Z,30.73
2022-11-28T17:01:03.258Z,25.53
2022-11-28T17:06:05.340Z,25.60
2022-11-28T17:12:01.505Z,32.37
2022-11-28T17:17:47.564Z,26.97
2022-11-28T17:22:56.401Z,26.43
2022-11-28T17:27:58.261Z,27.70
2022-11-28T17:33:12.405Z,24.40
2022-11-28T17:38:14.444Z,26.10
2022-11-28T17:43:21.591Z,27.73
2022-11-28T17:48:45.273Z,27.60
2022-11-28T17:53:47.143Z,27.67
2022-11-28T17:58:49.020Z,27.13
2022-11-28T18:03:54.934Z,35.17
2022-11-28T18:09:01.267Z,34.07
2022-11-28T18:14:06.277Z,28.70
2022-11-28T18:19:08.093Z,33.30
2022-11-28T18:29:59.495Z,32.20
2022-11-28T18:35:05.712Z,34.00
2022-11-28T18:40:34.406Z,31.47
2022-11-28T18:46:04.581Z,28.03
2022-11-28T18:52:03.673Z,35.83
2022-11-28T18:57:32.677Z,37.00
2022-11-28T19:02:45.041Z,81.10
2022-11-28T19:47:07.426Z,33.13
2022-11-28T20:04:56.760Z,33.37
2022-11-28T20:10:49.111Z,34.20
2022-11-28T20:16:30.004Z,33.07
2022-11-28T20:45:49.580Z,31.43
2022-11-28T20:57:20.207Z,28.90
2022-11-28T21:02:20.620Z,29.57
2022-11-28T21:07:24.016Z,31.10
2022-11-28T21:12:26.326Z,31.67
2022-11-28T21:17:29.982Z,33.87
2022-11-28T21:22:31.700Z,29.70
2022-11-28T21:27:35.252Z,29.43
2022-11-28T21:32:36.966Z,35.20
2022-11-28T21:37:39.007Z,39.97
2022-11-28T21:42:40.779Z,33.87
2022-11-28T21:47:42.716Z,27.73
2022-11-28T21:52:44.519Z,36.17
2022-11-28T21:57:46.161Z,47.03
2022-11-28T22:02:49.448Z,42.70
2022-11-28T22:07:51.220Z,35.97
2022-11-28T22:12:53.587Z,42.53
2022-11-28T22:17:55.295Z,44.23
2022-11-28T22:23:00.018Z,46.93
2022-11-28T22:28:02.744Z,39.30
2022-11-28T22:33:07.912Z,36.73
2022-11-28T22:38:09.592Z,45.60
2022-11-28T22:43:19.797Z,40.07
2022-11-28T22:48:24.662Z,41.87
2022-11-28T22:53:56.229Z,53.60
2022-11-28T22:58:59.663Z,39.80
2022-11-28T23:04:01.463Z,45.57
2022-11-28T23:09:10.900Z,45.97
2022-11-28T23:14:24.590Z,48.73
2022-11-28T23:19:39.889Z,61.80
2022-11-28T23:25:08.682Z,54.20
2022-11-28T23:30:13.937Z,53.60
2022-11-28T23:35:20.719Z,51.93
2022-11-28T23:40:22.372Z,51.67
2022-11-28T23:45:25.512Z,54.57
2022-11-28T23:50:31.898Z,58.90
2022-11-28T23:55:44.402Z,46.43
